createdAt,value
2019-03-12T00:00:34.646Z,97.80
2019-03-12T00:03:03.393Z,97.90
2019-03-12T00:05:31.784Z,98.00
2019-03-12T00:08:00.239Z,98.10
2019-03-12T00:10:28.661Z,98.40
2019-03-12T00:12:57.098Z,98.70
2019-03-12T00:15:25.496Z,98.80
2019-03-12T00:17:53.930Z,98.90
2019-03-12T00:20:22.329Z,98.70
2019-03-12T00:22:50.744Z,98.70
2019-03-12T00:25:19.164Z,98.70
2019-03-12T00:27:47.574Z,99.00
2019-03-12T00:30:16.101Z,99.20
2019-03-12T00:32:44.537Z,99.10
2019-03-12T00:35:13.014Z,98.90
2019-03-12T00:37:41.413Z,99.00
2019-03-12T00:40:10.376Z,99.10
2019-03-12T00:42:38.835Z,99.30
2019-03-12T00:45:09.744Z,99.40
2019-03-12T00:47:38.165Z,99.60
2019-03-12T00:50:08.974Z,99.60
2019-03-12T00:52:37.407Z,99.90
2019-03-12T00:55:07.921Z,99.90
2019-03-12T00:57:36.315Z,99.90
2019-03-12T01:00:13.413Z,99.90
2019-03-12T01:02:41.799Z,99.90
2019-03-12T01:05:10.477Z,99.90
2019-03-12T01:07:38.961Z,99.90
2019-03-12T01:10:15.689Z,99.90
2019-03-12T01:12:44.119Z,99.90
2019-03-12T01:15:13.878Z,99.90
2019-03-12T01:17:42.342Z,99.90
2019-03-12T01:20:12.684Z,99.90
2019-03-12T01:22:41.177Z,99.90
2019-03-12T01:25:11.320Z,99.90
2019-03-12T01:27:40.120Z,99.90
2019-03-12T01:30:18.532Z,99.90
2019-03-12T01:32:46.921Z,99.90
2019-03-12T01:35:15.314Z,99.90
2019-03-12T01:37:43.751Z,99.90
2019-03-12T01:40:13.873Z,99.90
2019-03-12T01:42:42.357Z,99.90
2019-03-12T01:45:13.489Z,99.90
2019-03-12T01:47:41.910Z,99.90
2019-03-12T01:50:14.434Z,99.90
2019-03-12T01:52:42.909Z,99.90
2019-03-12T01:55:13.985Z,99.90
2019-03-12T01:57:42.375Z,99.60
2019-03-12T02:00:18.842Z,99.50
2019-03-12T02:02:47.269Z,99.90
2019-03-12T02:05:15.687Z,99.90
2019-03-12T02:07:44.423Z,99.90
2019-03-12T02:10:14.167Z,99.90
2019-03-12T02:12:42.669Z,99.90
2019-03-12T02:15:13.066Z,99.90
2019-03-12T02:17:41.472Z,99.90
2019-03-12T02:20:12.412Z,99.90
2019-03-12T02:22:41.085Z,99.90
2019-03-12T02:25:12.117Z,99.90
2019-03-12T02:27:40.509Z,99.90
2019-03-12T02:30:20.307Z,99.90
2019-03-12T02:32:48.710Z,99.90
2019-03-12T02:35:17.331Z,99.90
2019-03-12T02:37:45.793Z,99.90
2019-03-12T02:40:15.323Z,99.90
2019-03-12T02:42:44.114Z,99.90
2019-03-12T02:45:15.131Z,99.80
2019-03-12T02:47:43.539Z,99.80
2019-03-12T02:50:13.816Z,99.40
2019-03-12T02:52:43.249Z,99.10
2019-03-12T02:55:12.480Z,99.00
2019-03-12T02:57:40.976Z,98.80
2019-03-12T03:00:19.166Z,98.80
2019-03-12T03:02:47.580Z,98.40
2019-03-12T03:05:16.183Z,98.50
2019-03-12T03:07:52.540Z,98.30
2019-03-12T03:10:21.068Z,98.40
2019-03-12T03:12:49.742Z,98.50
2019-03-12T03:15:21.421Z,98.40
2019-03-12T03:17:50.025Z,98.30
2019-03-12T03:20:18.849Z,98.40
2019-03-12T03:22:47.235Z,98.40
2019-03-12T03:25:16.527Z,98.50
2019-03-12T03:27:45.003Z,98.30
2019-03-12T03:30:16.483Z,98.50
2019-03-12T03:32:44.950Z,98.60
2019-03-12T03:35:13.867Z,98.50
2019-03-12T03:37:42.420Z,98.70
2019-03-12T03:40:13.891Z,98.80
2019-03-12T03:42:42.763Z,99.00
2019-03-12T03:45:11.174Z,98.80
2019-03-12T03:47:39.717Z,98.90
2019-03-12T03:50:13.959Z,99.00
2019-03-12T03:52:42.435Z,99.10
2019-03-12T03:55:13.746Z,99.20
2019-03-12T03:57:42.178Z,99.70
2019-03-12T04:00:13.806Z,99.40
2019-03-12T04:02:42.205Z,99.50
2019-03-12T04:05:10.696Z,99.50
2019-03-12T04:07:39.131Z,99.40
2019-03-12T04:10:10.036Z,99.50
2019-03-12T04:12:38.478Z,99.60
2019-03-12T04:15:12.332Z,99.50
2019-03-12T04:17:40.722Z,99.40
2019-03-12T04:20:13.793Z,99.60
2019-03-12T04:22:42.199Z,99.40
2019-03-12T04:25:11.118Z,99.40
2019-03-12T04:27:39.651Z,99.30
2019-03-12T04:30:19.181Z,99.30
2019-03-12T04:32:47.761Z,99.10
2019-03-12T04:35:21.918Z,99.10
2019-03-12T04:37:50.318Z,99.30
2019-03-12T04:40:18.737Z,99.30
2019-03-12T04:42:47.551Z,99.40
2019-03-12T04:45:16.987Z,99.50
2019-03-12T04:47:45.379Z,99.60
2019-03-12T04:50:14.736Z,99.50
2019-03-12T04:52:43.198Z,99.60
2019-03-12T04:55:14.300Z,99.50
2019-03-12T04:57:42.688Z,99.30
2019-03-12T05:00:14.746Z,99.30
2019-03-12T05:02:43.375Z,99.40
2019-03-12T05:05:11.933Z,99.40
2019-03-12T05:07:40.364Z,99.60
2019-03-12T05:10:14.413Z,99.20
2019-03-12T05:12:42.836Z,99.20
2019-03-12T05:15:16.589Z,99.10
2019-03-12T05:17:45.959Z,99.10
2019-03-12T05:20:15.475Z,99.10
2019-03-12T05:22:44.521Z,99.30
2019-03-12T05:25:14.265Z,99.10
2019-03-12T05:27:43.318Z,99.20
2019-03-12T05:30:19.874Z,98.90
2019-03-12T05:32:48.276Z,99.00
2019-03-12T05:35:16.702Z,98.90
2019-03-12T05:37:45.272Z,98.50
2019-03-12T05:40:17.009Z,98.70
2019-03-12T05:42:45.483Z,98.60
2019-03-12T05:45:16.183Z,98.70
2019-03-12T05:47:44.873Z,98.60
2019-03-12T05:50:17.914Z,98.60
2019-03-12T05:52:49.086Z,98.50
2019-03-12T05:55:16.812Z,98.50
2019-03-12T05:57:45.226Z,98.50
2019-03-12T06:00:19.698Z,98.50
2019-03-12T06:02:48.135Z,98.50
2019-03-12T06:05:16.576Z,98.50
2019-03-12T06:07:44.969Z,98.40
2019-03-12T06:10:15.400Z,98.40
2019-03-12T06:12:43.800Z,98.30
2019-03-12T06:15:16.191Z,98.30
2019-03-12T06:17:44.817Z,98.10
2019-03-12T06:20:14.366Z,98.20
2019-03-12T06:22:42.952Z,97.90
2019-03-12T06:25:12.001Z,97.90
2019-03-12T06:27:40.391Z,97.80
2019-03-12T06:30:18.728Z,97.70
2019-03-12T06:32:51.917Z,97.60
2019-03-12T06:35:21.948Z,97.50
2019-03-12T06:37:54.991Z,97.40
2019-03-12T06:40:27.686Z,97.20
2019-03-12T06:42:57.720Z,97.10
2019-03-12T06:45:33.782Z,97.20
2019-03-12T06:48:03.816Z,97.10
2019-03-12T06:50:43.072Z,97.10
2019-03-12T06:53:19.298Z,97.00
2019-03-12T06:56:04.973Z,97.20
2019-03-12T06:58:35.021Z,96.70
2019-03-12T07:01:11.036Z,96.60
2019-03-12T07:03:44.095Z,96.50
2019-03-12T07:06:17.277Z,96.00
2019-03-12T07:08:50.215Z,96.00
2019-03-12T07:11:36.848Z,95.60
2019-03-12T07:14:06.945Z,95.50
2019-03-12T07:16:39.679Z,95.60
2019-03-12T07:19:09.732Z,95.50
2019-03-12T07:21:42.528Z,95.30
2019-03-12T07:24:13.427Z,95.10
2019-03-12T07:26:43.495Z,94.90
2019-03-12T07:29:19.598Z,94.90
2019-03-12T07:32:07.674Z,95.00
2019-03-12T07:34:37.749Z,94.70
2019-03-12T07:37:13.545Z,94.50
2019-03-12T07:39:59.857Z,94.60
2019-03-12T07:42:29.921Z,94.50
2019-03-12T07:45:18.052Z,94.00
2019-03-12T07:47:53.789Z,93.80
2019-03-12T07:50:39.810Z,93.00
2019-03-12T07:53:19.100Z,93.00
2019-03-12T07:55:49.134Z,92.60
2019-03-12T07:58:19.169Z,92.40
2019-03-12T08:00:49.252Z,92.10
2019-03-12T08:03:21.962Z,92.00
2019-03-12T08:05:52.001Z,91.90
2019-03-12T08:08:25.051Z,91.70
2019-03-12T08:10:55.118Z,91.40
2019-03-12T08:13:31.136Z,91.40
2019-03-12T08:16:01.168Z,91.40
2019-03-12T08:18:31.231Z,91.20
2019-03-12T08:21:01.282Z,91.20
2019-03-12T08:23:33.966Z,90.90
2019-03-12T08:26:20.476Z,90.50
2019-03-12T08:28:59.530Z,90.40
2019-03-12T08:31:35.291Z,90.50
2019-03-12T08:34:14.108Z,90.20
2019-03-12T08:36:44.192Z,89.80
2019-03-12T08:39:17.169Z,89.80
2019-03-12T08:41:47.197Z,89.40
2019-03-12T08:44:26.464Z,88.70
2019-03-12T08:47:09.068Z,88.30
2019-03-12T08:49:39.121Z,87.90
2019-03-12T08:52:09.386Z,86.70
2019-03-12T08:54:55.760Z,86.60
2019-03-12T08:57:28.709Z,86.70
2019-03-12T09:00:01.444Z,86.50
2019-03-12T09:02:37.479Z,86.40
2019-03-12T09:05:24.323Z,85.40
2019-03-12T09:08:10.604Z,85.60
2019-03-12T09:10:43.024Z,84.70
2019-03-12T09:13:29.400Z,84.10
2019-03-12T09:16:05.430Z,82.50
2019-03-12T09:18:53.522Z,81.70
2019-03-12T09:21:40.069Z,81.30
2019-03-12T09:24:15.723Z,80.60
2019-03-12T09:26:51.764Z,79.80
2019-03-12T09:29:27.553Z,78.90
2019-03-12T09:32:03.559Z,78.40
2019-03-12T09:34:36.323Z,76.30
2019-03-12T09:37:12.109Z,74.50
2019-03-12T09:39:42.162Z,73.20
2019-03-12T09:42:18.370Z,72.80
2019-03-12T09:44:57.717Z,73.50
2019-03-12T09:47:33.572Z,71.90
2019-03-12T09:50:03.625Z,71.20
2019-03-12T09:52:49.005Z,69.90
2019-03-12T09:55:21.775Z,69.20
2019-03-12T09:58:06.695Z,69.90
2019-03-12T10:00:36.760Z,68.80
2019-03-12T10:03:12.570Z,69.10
2019-03-12T10:05:48.437Z,68.90
2019-03-12T10:08:33.499Z,68.90
2019-03-12T10:11:19.725Z,68.00
2019-03-12T10:13:55.240Z,69.30
2019-03-12T10:16:36.962Z,68.90
2019-03-12T10:19:09.713Z,69.50
2019-03-12T10:21:48.252Z,68.40
2019-03-12T10:24:18.299Z,67.60
2019-03-12T10:27:00.465Z,67.80
2019-03-12T10:29:30.529Z,67.30
2019-03-12T10:32:03.262Z,67.30
2019-03-12T10:34:48.616Z,66.70
2019-03-12T10:37:21.093Z,67.10
2019-03-12T10:40:09.473Z,67.20
2019-03-12T10:42:45.061Z,66.50
2019-03-12T10:45:20.984Z,67.40
2019-03-12T10:47:51.025Z,66.70
2019-03-12T10:50:19.445Z,68.00
2019-03-12T10:52:47.878Z,65.80
2019-03-12T10:55:16.280Z,65.90
2019-03-12T10:57:44.673Z,65.80
2019-03-12T11:00:17.865Z,64.70
2019-03-12T11:02:46.448Z,63.90
2019-03-12T11:05:15.017Z,62.90
2019-03-12T11:07:43.633Z,61.90
2019-03-12T11:10:17.388Z,62.10
2019-03-12T11:12:45.762Z,61.80
2019-03-12T11:15:15.325Z,60.50
2019-03-12T11:17:49.541Z,60.20
2019-03-12T11:20:19.811Z,60.20
2019-03-12T11:22:48.314Z,58.80
2019-03-12T11:25:26.556Z,58.60
2019-03-12T11:27:46.840Z,59.90
2019-03-12T11:30:17.573Z,60.10
2019-03-12T11:32:45.974Z,59.40
2019-03-12T11:35:14.539Z,60.00
2019-03-12T11:37:43.050Z,59.00
2019-03-12T11:40:22.943Z,58.90
2019-03-12T11:42:51.322Z,58.40
2019-03-12T11:45:22.209Z,58.70
2019-03-12T11:47:50.106Z,58.80
2019-03-12T11:50:20.524Z,58.80
2019-03-12T11:52:56.499Z,59.20
2019-03-12T11:55:19.350Z,59.70
2019-03-12T11:57:48.374Z,59.80
2019-03-12T12:00:26.910Z,59.00
2019-03-12T12:03:00.225Z,58.20
2019-03-12T12:05:25.942Z,57.10
2019-03-12T12:07:54.366Z,57.00
2019-03-12T12:10:22.908Z,56.90
2019-03-12T12:12:51.606Z,55.90
2019-03-12T12:15:20.009Z,55.90
2019-03-12T12:17:49.512Z,55.80
2019-03-12T12:20:28.740Z,56.00
2019-03-12T12:22:48.687Z,55.70
2019-03-12T12:25:20.716Z,52.30
2019-03-12T12:27:49.145Z,52.10
2019-03-12T12:30:21.585Z,52.10
2019-03-12T12:32:50.013Z,52.00
2019-03-12T12:35:19.380Z,52.00
2019-03-12T12:37:47.790Z,51.50
2019-03-12T12:40:17.646Z,52.60
2019-03-12T12:42:46.140Z,52.60
2019-03-12T12:45:17.243Z,53.20
2019-03-12T12:47:45.805Z,54.20
2019-03-12T12:50:14.844Z,53.50
2019-03-12T12:52:43.245Z,52.90
2019-03-12T12:55:13.697Z,53.80
2019-03-12T12:57:42.132Z,52.70
2019-03-12T13:00:19.784Z,53.20
2019-03-12T13:02:48.218Z,52.60
2019-03-12T13:05:18.330Z,51.50
2019-03-12T13:07:46.724Z,51.70
2019-03-12T13:10:20.750Z,51.80
2019-03-12T13:12:49.146Z,53.20
2019-03-12T13:15:17.618Z,54.10
2019-03-12T13:17:46.043Z,53.50
2019-03-12T13:20:15.009Z,53.30
2019-03-12T13:22:43.388Z,52.60
2019-03-12T13:25:16.835Z,53.20
2019-03-12T13:27:45.299Z,52.60
2019-03-12T13:30:16.794Z,52.80
2019-03-12T13:32:45.195Z,52.10
2019-03-12T13:35:15.537Z,50.50
2019-03-12T13:37:44.028Z,50.60
2019-03-12T13:40:15.529Z,48.50
2019-03-12T13:42:44.379Z,49.50
2019-03-12T13:45:15.971Z,50.30
2019-03-12T13:47:44.604Z,49.40
2019-03-12T13:50:13.585Z,51.50
2019-03-12T13:52:42.059Z,49.40
2019-03-12T13:55:12.496Z,49.10
2019-03-12T13:57:41.063Z,48.90
2019-03-12T14:00:15.408Z,48.90
2019-03-12T14:02:44.381Z,51.00
2019-03-12T14:05:13.308Z,48.80
2019-03-12T14:07:41.807Z,50.30
2019-03-12T14:10:16.458Z,50.50
2019-03-12T14:12:44.853Z,51.10
2019-03-12T14:15:18.828Z,51.50
2019-03-12T14:17:47.243Z,52.90
2019-03-12T14:20:41.338Z,53.90
2019-03-12T14:23:15.753Z,53.30
2019-03-12T14:25:44.777Z,52.80
2019-03-12T14:28:13.265Z,52.80
2019-03-12T14:30:41.677Z,54.40
2019-03-12T14:33:10.120Z,53.00
2019-03-12T14:35:50.393Z,52.20
2019-03-12T14:38:08.663Z,52.20
2019-03-12T14:40:37.210Z,52.10
2019-03-12T14:43:05.780Z,51.90
2019-03-12T14:45:36.717Z,51.60
2019-03-12T14:48:05.417Z,51.90
2019-03-12T14:50:34.404Z,51.70
2019-03-12T14:53:21.255Z,52.00
2019-03-12T14:55:41.858Z,51.40
2019-03-12T14:58:10.257Z,51.10
2019-03-12T15:00:38.650Z,50.90
2019-03-12T15:03:07.081Z,51.20
2019-03-12T15:05:35.576Z,52.10
2019-03-12T15:08:05.568Z,50.70
2019-03-12T15:10:34.008Z,50.40
2019-03-12T15:13:02.442Z,50.00
2019-03-12T15:15:30.885Z,49.70
2019-03-12T15:17:59.626Z,49.70
2019-03-12T15:20:28.014Z,48.90
2019-03-12T15:22:56.418Z,49.40
2019-03-12T15:25:24.874Z,49.00
2019-03-12T15:27:53.269Z,48.60
2019-03-12T15:30:27.037Z,48.70
2019-03-12T15:32:55.550Z,49.10
2019-03-12T15:35:23.945Z,48.70
2019-03-12T15:37:52.347Z,47.70
2019-03-12T15:40:20.777Z,48.70
2019-03-12T15:42:49.226Z,47.60
2019-03-12T15:45:17.615Z,47.90
2019-03-12T15:47:46.009Z,47.30
2019-03-12T15:50:18.961Z,46.70
2019-03-12T15:52:47.286Z,47.10
2019-03-12T15:55:15.737Z,46.20
2019-03-12T15:57:44.179Z,46.50
2019-03-12T16:00:15.198Z,46.70
2019-03-12T16:02:43.588Z,46.50
2019-03-12T16:05:12.086Z,46.00
2019-03-12T16:07:40.729Z,46.70
2019-03-12T16:10:19.283Z,46.90
2019-03-12T16:12:47.162Z,45.60
2019-03-12T16:15:16.895Z,46.70
2019-03-12T16:17:45.682Z,45.00
2019-03-12T16:20:20.977Z,45.70
2019-03-12T16:22:49.397Z,45.10
2019-03-12T16:25:18.274Z,46.20
2019-03-12T16:27:46.687Z,46.30
2019-03-12T16:30:21.841Z,46.90
2019-03-12T16:32:50.289Z,47.50
2019-03-12T16:35:18.703Z,47.80
2019-03-12T16:37:47.123Z,48.20
2019-03-12T16:40:19.532Z,48.30
2019-03-12T16:42:47.978Z,48.40
2019-03-12T16:45:20.465Z,48.80
2019-03-12T16:47:48.908Z,48.40
2019-03-12T16:50:18.089Z,47.90
2019-03-12T16:52:46.584Z,48.10
2019-03-12T16:55:19.051Z,47.90
2019-03-12T16:57:47.450Z,47.70
2019-03-12T17:00:17.393Z,47.90
2019-03-12T17:02:46.024Z,47.50
2019-03-12T17:05:15.009Z,47.10
2019-03-12T17:07:43.546Z,47.50
2019-03-12T17:10:22.226Z,48.10
2019-03-12T17:12:50.624Z,47.50
2019-03-12T17:15:22.275Z,47.00
2019-03-12T17:17:50.705Z,47.30
2019-03-12T17:20:19.365Z,47.80
2019-03-12T17:22:47.772Z,47.10
2019-03-12T17:25:16.269Z,47.40
2019-03-12T17:27:44.667Z,47.10
2019-03-12T17:30:20.572Z,46.50
2019-03-12T17:32:49.079Z,47.20
2019-03-12T17:35:20.916Z,47.10
2019-03-12T17:37:49.327Z,48.20
2019-03-12T17:40:20.071Z,47.60
2019-03-12T17:42:49.273Z,46.50
2019-03-12T17:45:18.716Z,46.10
2019-03-12T17:47:47.178Z,45.70
2019-03-12T17:50:16.024Z,45.40
2019-03-12T17:52:44.413Z,44.90
2019-03-12T17:55:14.061Z,45.10
2019-03-12T17:57:43.044Z,45.30
2019-03-12T18:00:23.718Z,44.90
2019-03-12T18:02:52.229Z,44.80
2019-03-12T18:05:20.640Z,44.70
2019-03-12T18:07:49.081Z,45.40
2019-03-12T18:10:18.316Z,45.40
2019-03-12T18:12:46.727Z,45.40
2019-03-12T18:15:22.025Z,45.70
2019-03-12T18:17:50.422Z,45.80
2019-03-12T18:20:23.486Z,46.30
2019-03-12T18:22:51.935Z,46.20
2019-03-12T18:25:35.736Z,46.00
2019-03-12T18:28:04.542Z,45.90
2019-03-12T18:30:32.948Z,45.60
2019-03-12T18:33:01.350Z,46.30
2019-03-12T18:35:30.129Z,46.20
2019-03-12T18:37:58.525Z,46.30
2019-03-12T18:40:28.169Z,46.30
2019-03-12T18:42:56.673Z,46.20
2019-03-12T18:45:27.379Z,45.40
2019-03-12T18:47:55.840Z,45.60
2019-03-12T18:50:24.270Z,45.30
2019-03-12T18:52:52.659Z,45.50
2019-03-12T18:55:32.717Z,45.70
2019-03-12T18:58:01.953Z,45.50
2019-03-12T19:00:31.105Z,45.90
2019-03-12T19:02:59.533Z,45.60
2019-03-12T19:05:28.452Z,45.80
2019-03-12T19:07:57.099Z,46.00
2019-03-12T19:10:25.673Z,46.20
2019-03-12T19:12:54.068Z,46.20
2019-03-12T19:15:22.565Z,46.00
2019-03-12T19:17:51.004Z,45.80
2019-03-12T19:20:20.153Z,45.70
2019-03-12T19:22:48.695Z,45.50
2019-03-12T19:25:28.757Z,45.50
2019-03-12T19:28:00.287Z,45.30
2019-03-12T19:30:27.295Z,45.50
2019-03-12T19:32:57.365Z,45.30
2019-03-12T19:35:27.402Z,45.50
2019-03-12T19:37:56.781Z,44.70
2019-03-12T19:40:45.497Z,44.80
2019-03-12T19:43:14.007Z,44.50
2019-03-12T19:45:42.417Z,44.80
2019-03-12T19:48:10.906Z,45.10
2019-03-12T19:50:39.710Z,45.10
2019-03-12T19:53:08.174Z,45.00
2019-03-12T19:55:57.735Z,45.20
2019-03-12T19:58:28.414Z,45.50
2019-03-12T20:00:56.699Z,46.00
2019-03-12T20:03:25.124Z,47.60
2019-03-12T20:05:53.536Z,48.20
2019-03-12T20:08:21.951Z,48.60
2019-03-12T20:11:01.800Z,48.90
2019-03-12T20:13:50.913Z,49.00
2019-03-12T20:16:43.170Z,49.90
2019-03-12T20:19:17.584Z,50.50
2019-03-12T20:22:10.801Z,50.40
2019-03-12T20:24:59.211Z,51.70
2019-03-12T20:27:36.277Z,52.40
2019-03-12T20:30:27.430Z,53.10
2019-03-12T20:33:04.437Z,54.10
2019-03-12T20:35:52.780Z,54.50
2019-03-12T20:38:24.268Z,55.30
2019-03-12T20:41:28.838Z,55.80
2019-03-12T20:44:19.739Z,56.50
2019-03-12T20:47:13.953Z,57.20
2019-03-12T20:50:02.916Z,58.60
2019-03-12T20:52:46.910Z,59.20
2019-03-12T20:55:27.439Z,59.70
2019-03-12T20:58:13.742Z,60.40
2019-03-12T21:01:04.547Z,60.70
2019-03-12T21:03:52.559Z,61.00
2019-03-12T21:06:35.774Z,61.40
2019-03-12T21:09:25.372Z,64.80
2019-03-12T21:12:13.702Z,66.20
2019-03-12T21:15:18.612Z,67.00
2019-03-12T21:18:14.236Z,68.10
2019-03-12T21:21:19.161Z,69.50
2019-03-12T21:23:50.776Z,71.90
2019-03-12T21:26:38.948Z,73.10
2019-03-12T21:29:13.330Z,74.50
2019-03-12T21:31:41.777Z,76.60
2019-03-12T21:34:10.187Z,78.40
2019-03-12T21:36:38.585Z,80.90
2019-03-12T21:39:08.564Z,84.90
2019-03-12T21:41:36.962Z,89.20
2019-03-12T21:44:05.437Z,91.70
2019-03-12T21:46:33.901Z,91.60
2019-03-12T21:49:02.291Z,93.20
2019-03-12T21:51:31.168Z,93.40
2019-03-12T21:53:59.749Z,94.40
2019-03-12T21:56:28.156Z,94.90
2019-03-12T21:58:56.540Z,96.60
2019-03-12T22:01:24.965Z,97.90
2019-03-12T22:03:53.357Z,99.50
2019-03-12T22:06:21.753Z,99.40
2019-03-12T22:08:50.186Z,99.80
2019-03-12T22:11:18.582Z,99.90
2019-03-12T22:13:46.978Z,99.90
2019-03-12T22:16:15.476Z,99.90
2019-03-12T22:18:44.106Z,99.90
2019-03-12T22:21:14.140Z,99.90
2019-03-12T22:23:47.147Z,99.90
2019-03-12T22:26:15.570Z,99.90
2019-03-12T22:28:43.958Z,99.90
2019-03-12T22:31:12.365Z,99.70
2019-03-12T22:33:40.794Z,99.60
2019-03-12T22:36:09.213Z,99.40
2019-03-12T22:38:37.596Z,99.90
2019-03-12T22:41:06.042Z,99.90
2019-03-12T22:43:34.614Z,99.90
2019-03-12T22:46:03.017Z,99.90
2019-03-12T22:48:31.437Z,99.70
2019-03-12T22:50:59.841Z,99.90
2019-03-12T22:53:28.234Z,99.40
2019-03-12T22:55:56.649Z,99.80
2019-03-12T22:58:25.045Z,99.50
2019-03-12T23:00:54.887Z,99.10
2019-03-12T23:03:23.329Z,99.30
2019-03-12T23:05:51.716Z,98.80
2019-03-12T23:08:20.217Z,98.50
2019-03-12T23:10:49.288Z,97.90
2019-03-12T23:13:17.846Z,98.00
2019-03-12T23:15:46.361Z,97.50
2019-03-12T23:18:14.768Z,97.00
2019-03-12T23:20:43.198Z,97.00
2019-03-12T23:23:11.669Z,96.50
2019-03-12T23:25:40.093Z,96.10
2019-03-12T23:28:08.487Z,95.60
2019-03-12T23:30:37.003Z,95.50
2019-03-12T23:33:05.390Z,95.40
2019-03-12T23:35:33.776Z,94.80
2019-03-12T23:38:02.265Z,95.00
2019-03-12T23:40:30.717Z,94.00
2019-03-12T23:42:59.113Z,94.00
2019-03-12T23:45:27.752Z,94.10
2019-03-12T23:47:56.173Z,94.50
2019-03-12T23:50:26.378Z,94.30
2019-03-12T23:52:54.778Z,94.50
2019-03-12T23:55:23.282Z,94.30
2019-03-12T23:57:51.669Z,94.40
